Excellent — IBBE — position and weather

sailwx.info

Track history (hours):
 
Tides and Currents Weather Stations Pressure Air Temp Water Temp Dewpoint Dewpoint Depression Visibility Wind Speed Wind Dir Waves Ship Positions

Excellent

Last reported at 2018-Aug-16 07:29 UTC. Time now 2018-Aug-16 08:00 UTC.
Position N 44°24' E 008°55'.

Length 202 m; draft 6.5 m.

Type: Ship. MMSI: 247279000.

Date/timePositionNaut miles runAvg speedWind from/ knotsBaromVisibWave heightAir tempDewpointWater temp
2018-Aug-16 07:29N 44°24' E 008°55'0 0.0
2018-Aug-16 06:59N 44°24' E 008°55'0 0.0
2018-Aug-16 06:29N 44°24' E 008°55'0 0.0
2018-Aug-16 05:59N 44°24' E 008°55'0 0.2
2018-Aug-16 05:30N 44°24' E 008°55'2 4.5
2018-Aug-16 05:00N 44°23' E 008°57'2 4.9
2018-Aug-16 04:30N 44°21' E 008°58'816.4
2018-Aug-16 04:00N 44°14' E 008°51'1121.7
2018-Aug-16 03:30N 44°07' E 008°40'1121.5
2018-Aug-16 03:00N 43°60' E 008°29'1121.3
2018-Aug-16 02:30N 43°53' E 008°18'1020.8
2018-Aug-16 02:00N 43°47' E 008°06'1020.6
2018-Aug-16 01:30N 43°42' E 007°54'1020.7
2018-Aug-16 01:00N 43°35' E 007°43'1020.7
2018-Aug-16 00:30N 43°29' E 007°31'1121.1
2018-Aug-16 00:00N 43°23' E 007°19'1121.3
2018-Aug-15 23:30N 43°17' E 007°07'1121.3
2018-Aug-15 23:00N 43°10' E 006°56'1121.3
2018-Aug-15 22:30N 43°04' E 006°44'1121.1
2018-Aug-15 22:00N 42°58' E 006°32'20321.6
2018-Aug-15 12:36N 41°25' E 002°28'222.3
2018-Aug-15 12:30N 41°24' E 002°25'1121.9
2018-Aug-15 12:00N 41°17' E 002°14'5 9.4
2018-Aug-15 11:30N 41°20' E 002°10'2 3.0
2018-Aug-15 10:58N 41°22' E 002°10'0 0.0
2018-Aug-15 10:28N 41°22' E 002°10'0 0.0
2018-Aug-15 09:58N 41°22' E 002°10'0 0.0
2018-Aug-15 09:28N 41°22' E 002°10'0 0.0
2018-Aug-15 08:58N 41°22' E 002°10'0 0.0
2018-Aug-15 08:25N 41°22' E 002°10'0 0.0
2018-Aug-15 07:58N 41°22' E 002°10'0 0.0
2018-Aug-15 07:30N 41°22' E 002°10'2 3.7
2018-Aug-15 07:00N 41°20' E 002°10'611.4
2018-Aug-15 06:30N 41°14' E 002°10'815.9
2018-Aug-15 06:00N 41°07' E 002°05'816.7
2018-Aug-15 05:30N 40°60' E 002°00'16617.1
2018-Aug-14 19:48N 38°33' E 000°20'1817.2
2018-Aug-14 18:43N 38°17' E 000°07'1317.3
2018-Aug-14 17:57N 38°06' W 000°03'817.1
2018-Aug-14 17:30N 37°60' W 000°09'1217.1
2018-Aug-14 16:47N 37°50' W 000°17'517.3
2018-Aug-14 16:30N 37°46' W 000°20'917.2
2018-Aug-14 16:00N 37°38' W 000°26'917.4
2018-Aug-14 15:30N 37°32' W 000°33'917.5
2018-Aug-14 14:59N 37°26' W 000°42'917.5
2018-Aug-14 14:29N 37°20' W 000°50'917.6
2018-Aug-14 13:58N 37°14' W 000°59'21017.5
2018-Aug-14 01:58N 36°00' W 005°04'1020.8
2018-Aug-14 01:30N 35°59' W 005°16'1019.3
2018-Aug-14 01:00N 35°57' W 005°28'4 7.1
2018-Aug-14 00:29N 35°54' W 005°30'0 0.0
2018-Aug-13 23:59N 35°54' W 005°30'0 0.0
2018-Aug-13 23:29N 35°54' W 005°30'0 0.0
2018-Aug-13 22:59N 35°54' W 005°30'0 0.0
2018-Aug-13 22:29N 35°54' W 005°30'0 0.0
2018-Aug-13 21:53N 35°54' W 005°30'0 0.0
2018-Aug-13 21:29N 35°54' W 005°30'0 0.0
2018-Aug-13 20:59N 35°54' W 005°30'0 0.0
2018-Aug-13 20:11N 35°54' W 005°30'3 1.1
2018-Aug-13 17:27N 35°56' W 005°31'715.6
2018-Aug-13 17:00N 36°00' W 005°24'1019.2
2018-Aug-13 16:30N 36°02' W 005°13'21820.5
2018-Aug-13 05:54N 37°18' W 000°58'922.7
2018-Aug-13 05:30N 37°24' W 000°49'1122.7
2018-Aug-13 05:00N 37°31' W 000°39'1122.3
2018-Aug-13 04:30N 37°39' W 000°29'1222.2
2018-Aug-13 03:58N 37°49' W 000°21'1122.2
2018-Aug-13 03:30N 37°58' W 000°14'21222.6
2018-Aug-12 18:08N 41°03' E 002°00'322.6
2018-Aug-12 17:59N 41°06' E 002°03'1122.4
2018-Aug-12 17:31N 41°15' E 002°10'611.4
2018-Aug-12 17:01N 41°21' E 002°10'1 2.1
2018-Aug-12 16:29N 41°22' E 002°10'0 0.0
2018-Aug-12 15:59N 41°22' E 002°10'0 0.0
2018-Aug-12 15:27N 41°22' E 002°10'0 0.0
2018-Aug-12 15:00N 41°22' E 002°10'0 0.0
2018-Aug-12 14:29N 41°22' E 002°10'0 0.0
2018-Aug-12 14:00N 41°22' E 002°10'0 0.0
2018-Aug-12 13:30N 41°22' E 002°10'0 0.0
2018-Aug-12 13:00N 41°22' E 002°10'0 0.0
2018-Aug-12 12:30N 41°22' E 002°10'0 0.0
2018-Aug-12 12:00N 41°22' E 002°10'0 0.0
2018-Aug-12 11:30N 41°22' E 002°10'0 0.0
2018-Aug-12 11:00N 41°22' E 002°11'2 4.5
2018-Aug-12 10:30N 41°20' E 002°10'5 9.3
2018-Aug-12 10:00N 41°17' E 002°16'1121.3
2018-Aug-12 09:30N 41°23' E 002°28'11921.6
2018-Aug-12 03:59N 42°18' E 004°49'3221.7
2018-Aug-12 02:31N 42°33' E 005°27'121.5
2018-Aug-12 02:29N 42°33' E 005°28'3021.7
2018-Aug-12 01:07N 42°47' E 006°04'1122.1
2018-Aug-12 00:38N 42°52' E 006°17'322.3
2018-Aug-12 00:30N 42°53' E 006°20'1122.4
2018-Aug-12 00:00N 42°59' E 006°34'1122.5
2018-Aug-11 23:30N 43°05' E 006°46'1122.6
2018-Aug-11 23:00N 43°12' E 006°58'1122.5
2018-Aug-11 22:30N 43°19' E 007°11'1122.4
2018-Aug-11 22:00N 43°26' E 007°23'1122.4
2018-Aug-11 21:30N 43°33' E 007°35'1122.3
2018-Aug-11 21:00N 43°39' E 007°47'1422.5
2018-Aug-11 20:24N 43°47' E 008°03'922.6
2018-Aug-11 20:00N 43°53' E 008°12'1122.4
2018-Aug-11 19:30N 43°60' E 008°24'1122.0
2018-Aug-11 19:00N 44°07' E 008°36'1122.0
2018-Aug-11 18:30N 44°13' E 008°48'1020.2
2018-Aug-11 18:00N 44°21' E 008°57'3 7.0
2018-Aug-11 17:31N 44°24' E 008°55'0 0.0
2018-Aug-11 17:00N 44°24' E 008°55'0 0.0
2018-Aug-11 16:31N 44°24' E 008°55'0 0.0
2018-Aug-11 16:01N 44°24' E 008°55'0 0.0
2018-Aug-11 15:31N 44°24' E 008°55'0 0.0
2018-Aug-11 15:01N 44°24' E 008°55'0 0.0
2018-Aug-11 14:31N 44°24' E 008°55'0 0.0
2018-Aug-11 14:01N 44°24' E 008°55'0 0.0
2018-Aug-11 13:31N 44°24' E 008°55'0 0.0
2018-Aug-11 13:01N 44°24' E 008°55'0 0.0
2018-Aug-11 12:31N 44°24' E 008°55'0 0.0
2018-Aug-11 12:01N 44°24' E 008°55'0 0.0
2018-Aug-11 11:31N 44°24' E 008°55'0 0.0
2018-Aug-11 11:00N 44°24' E 008°55'0 0.0
2018-Aug-11 10:30N 44°24' E 008°55'0 0.0
2018-Aug-11 10:01N 44°24' E 008°55'0 0.0
2018-Aug-11 09:31N 44°24' E 008°55'0 0.0
2018-Aug-11 09:01N 44°24' E 008°55'0 0.0
2018-Aug-11 08:30N 44°24' E 008°55'0 0.0
2018-Aug-11 08:00N 44°24' E 008°55'0 0.0
2018-Aug-11 07:30N 44°24' E 008°55'0 0.0
2018-Aug-11 07:01N 44°24' E 008°55'0 0.0
2018-Aug-11 06:31N 44°24' E 008°55'0 0.0
2018-Aug-11 06:01N 44°24' E 008°55'0 0.1
2018-Aug-11 05:30N 44°24' E 008°55'2 5.0
2018-Aug-11 05:00N 44°23' E 008°57'713.5
2018-Aug-11 04:30N 44°16' E 008°55'1020.4
2018-Aug-11 04:00N 44°10' E 008°43'1020.7
2018-Aug-11 03:30N 44°04' E 008°32'1020.5
2018-Aug-11 03:00N 43°57' E 008°21'1120.1
2018-Aug-11 02:29N 43°51' E 008°09'2820.2
2018-Aug-11 01:06N 43°34' E 007°38'220.1
2018-Aug-11 00:59N 43°32' E 007°36'1020.0
2018-Aug-11 00:30N 43°27' E 007°25'918.0
2018-Aug-11 00:00N 43°22' E 007°15'918.6
2018-Aug-10 23:30N 43°16' E 007°05'1019.7
2018-Aug-10 23:00N 43°10' E 006°54'20620.4
2018-Aug-10 12:54N 41°31' E 002°50'1219.9
2018-Aug-10 12:17N 41°26' E 002°35'519.3
2018-Aug-10 12:00N 41°23' E 002°29'1019.1
2018-Aug-10 11:30N 41°18' E 002°18'612.1
2018-Aug-10 11:00N 41°19' E 002°10'3 5.2
2018-Aug-10 10:30N 41°22' E 002°11'0 0.1
2018-Aug-10 09:58N 41°22' E 002°10'0 0.0
2018-Aug-10 09:28N 41°22' E 002°10'0 0.0
2018-Aug-10 08:58N 41°22' E 002°10'0 0.0
2018-Aug-10 08:28N 41°22' E 002°10'0 0.0
2018-Aug-10 07:58N 41°22' E 002°10'0 0.0
2018-Aug-10 07:30N 41°22' E 002°10'1 2.9
2018-Aug-10 07:00N 41°20' E 002°10'611.4
2018-Aug-10 06:31N 41°15' E 002°11'918.9
2018-Aug-10 06:01N 41°07' E 002°04'816.4
2018-Aug-10 05:30N 40°59' E 001°59'16115.8
2018-Aug-09 19:18N 38°36' E 000°23'2017.3
2018-Aug-09 18:08N 38°19' E 000°09'516.8
2018-Aug-09 17:51N 38°15' E 000°05'716.5
2018-Aug-09 17:27N 38°10' E 000°00'716.7
2018-Aug-09 17:01N 38°04' W 000°05'816.5
2018-Aug-09 16:31N 37°57' W 000°11'816.5
2018-Aug-09 16:00N 37°50' W 000°16'816.6
2018-Aug-09 15:31N 37°43' W 000°22'816.6
2018-Aug-09 15:01N 37°36' W 000°28'816.9
2018-Aug-09 14:31N 37°30' W 000°36'816.8
2018-Aug-09 14:01N 37°24' W 000°43'916.9
2018-Aug-09 13:30N 37°19' W 000°51'21717.1
2018-Aug-09 00:49N 36°01' W 005°04'620.2
2018-Aug-09 00:30N 36°00' W 005°12'1020.0
2018-Aug-09 00:01N 35°58' W 005°24'713.0
2018-Aug-08 23:29N 35°54' W 005°30'0 0.6
2018-Aug-08 23:00N 35°54' W 005°30'0 0.0
2018-Aug-08 22:30N 35°54' W 005°30'0 0.0
2018-Aug-08 21:54N 35°54' W 005°30'0 0.0
2018-Aug-08 21:30N 35°54' W 005°30'3 0.4
2018-Aug-08 14:43N 35°56' W 005°30'417.5
2018-Aug-08 14:31N 35°59' W 005°27'918.7
2018-Aug-08 14:00N 36°02' W 005°16'22118.6
2018-Aug-08 02:07N 37°18' W 000°57'220.5
2018-Aug-08 02:00N 37°20' W 000°55'1020.5
2018-Aug-08 01:30N 37°26' W 000°45'1020.5
2018-Aug-08 01:01N 37°33' W 000°36'1020.3
2018-Aug-08 00:31N 37°41' W 000°28'1020.2
2018-Aug-08 00:00N 37°49' W 000°20'1020.6
2018-Aug-07 23:31N 37°58' W 000°13'1020.5
2018-Aug-07 23:00N 38°06' W 000°06'1120.6
2018-Aug-07 22:28N 38°16' E 000°01'1820.5
2018-Aug-07 21:35N 38°31' E 000°14'220.5
2018-Aug-07 21:30N 38°33' E 000°15'1220.3
2018-Aug-07 20:56N 38°42' E 000°23'7120.3
2018-Aug-07 17:27N 39°44' E 001°06'8817.4
2018-Aug-07 12:26N 41°02' E 001°60'819.7
2018-Aug-07 12:00N 41°09' E 002°05'918.5
2018-Aug-07 11:30N 41°18' E 002°10'4 7.8
2018-Aug-07 11:01N 41°22' E 002°11'0 0.5
2018-Aug-07 10:28N 41°22' E 002°10'0 0.0
2018-Aug-07 09:58N 41°22' E 002°10'0 0.0
2018-Aug-07 09:28N 41°22' E 002°10'0 0.0
2018-Aug-07 08:58N 41°22' E 002°10'0 0.0
2018-Aug-07 08:28N 41°22' E 002°10'0 0.0
2018-Aug-07 07:58N 41°22' E 002°10'0 0.0
2018-Aug-07 07:28N 41°22' E 002°10'0 0.0
2018-Aug-07 06:58N 41°22' E 002°10'0 0.0
2018-Aug-07 06:28N 41°22' E 002°10'0 0.0
2018-Aug-07 05:59N 41°22' E 002°10'1 2.5
2018-Aug-07 05:30N 41°21' E 002°10'4 7.5
2018-Aug-07 05:00N 41°17' E 002°11'713.9
2018-Aug-07 04:31N 41°19' E 002°20'714.8
2018-Aug-07 04:00N 41°23' E 002°28'1515.2
2018-Aug-07 03:01N 41°32' E 002°45'115.2
2018-Aug-07 02:59N 41°32' E 002°45'715.2
2018-Aug-07 02:30N 41°36' E 002°53'815.6
2018-Aug-07 02:00N 41°41' E 003°01'916.0
2018-Aug-07 01:25N 41°46' E 003°12'615.8
2018-Aug-07 01:00N 41°50' E 003°19'1016.2
2018-Aug-07 00:25N 41°60' E 003°22'86 5.7
2018-Aug-06 09:28N 43°24' E 003°42'0 0.0
2018-Aug-06 08:58N 43°24' E 003°42'0 0.0
2018-Aug-06 08:28N 43°24' E 003°42'0 0.0
2018-Aug-06 07:58N 43°24' E 003°42'  
Track history (hours):
 
Tides and Currents Weather Stations Pressure Air Temp Water Temp Dewpoint Dewpoint Depression Visibility Wind Speed Wind Dir Waves Ship Positions

Excellent

Last reported at 2018-Aug-16 07:29 UTC. Time now 2018-Aug-16 08:00 UTC.
Position N 44°24' E 008°55'.

Length 202 m; draft 6.5 m.

Type: Ship. MMSI: 247279000.

Date/timePositionNaut miles runAvg speedWind from/ knotsBaromVisibWave heightAir tempDewpointWater temp
2018-Aug-16 07:29N 44°24' E 008°55'0 0.0
2018-Aug-16 06:59N 44°24' E 008°55'0 0.0
2018-Aug-16 06:29N 44°24' E 008°55'0 0.0
2018-Aug-16 05:59N 44°24' E 008°55'0 0.2
2018-Aug-16 05:30N 44°24' E 008°55'2 4.5
2018-Aug-16 05:00N 44°23' E 008°57'2 4.9
2018-Aug-16 04:30N 44°21' E 008°58'816.4
2018-Aug-16 04:00N 44°14' E 008°51'1121.7
2018-Aug-16 03:30N 44°07' E 008°40'1121.5
2018-Aug-16 03:00N 43°60' E 008°29'1121.3
2018-Aug-16 02:30N 43°53' E 008°18'1020.8
2018-Aug-16 02:00N 43°47' E 008°06'1020.6
2018-Aug-16 01:30N 43°42' E 007°54'1020.7
2018-Aug-16 01:00N 43°35' E 007°43'1020.7
2018-Aug-16 00:30N 43°29' E 007°31'1121.1
2018-Aug-16 00:00N 43°23' E 007°19'1121.3
2018-Aug-15 23:30N 43°17' E 007°07'1121.3
2018-Aug-15 23:00N 43°10' E 006°56'1121.3
2018-Aug-15 22:30N 43°04' E 006°44'1121.1
2018-Aug-15 22:00N 42°58' E 006°32'20321.6
2018-Aug-15 12:36N 41°25' E 002°28'222.3
2018-Aug-15 12:30N 41°24' E 002°25'1121.9
2018-Aug-15 12:00N 41°17' E 002°14'5 9.4
2018-Aug-15 11:30N 41°20' E 002°10'2 3.0
2018-Aug-15 10:58N 41°22' E 002°10'0 0.0
2018-Aug-15 10:28N 41°22' E 002°10'0 0.0
2018-Aug-15 09:58N 41°22' E 002°10'0 0.0
2018-Aug-15 09:28N 41°22' E 002°10'0 0.0
2018-Aug-15 08:58N 41°22' E 002°10'0 0.0
2018-Aug-15 08:25N 41°22' E 002°10'0 0.0
2018-Aug-15 07:58N 41°22' E 002°10'0 0.0
2018-Aug-15 07:30N 41°22' E 002°10'2 3.7
2018-Aug-15 07:00N 41°20' E 002°10'611.4
2018-Aug-15 06:30N 41°14' E 002°10'815.9
2018-Aug-15 06:00N 41°07' E 002°05'816.7
2018-Aug-15 05:30N 40°60' E 002°00'16617.1
2018-Aug-14 19:48N 38°33' E 000°20'1817.2
2018-Aug-14 18:43N 38°17' E 000°07'1317.3
2018-Aug-14 17:57N 38°06' W 000°03'817.1
2018-Aug-14 17:30N 37°60' W 000°09'1217.1
2018-Aug-14 16:47N 37°50' W 000°17'517.3
2018-Aug-14 16:30N 37°46' W 000°20'917.2
2018-Aug-14 16:00N 37°38' W 000°26'917.4
2018-Aug-14 15:30N 37°32' W 000°33'917.5
2018-Aug-14 14:59N 37°26' W 000°42'917.5
2018-Aug-14 14:29N 37°20' W 000°50'917.6
2018-Aug-14 13:58N 37°14' W 000°59'21017.5
2018-Aug-14 01:58N 36°00' W 005°04'1020.8
2018-Aug-14 01:30N 35°59' W 005°16'1019.3
2018-Aug-14 01:00N 35°57' W 005°28'4 7.1
2018-Aug-14 00:29N 35°54' W 005°30'0 0.0
2018-Aug-13 23:59N 35°54' W 005°30'0 0.0
2018-Aug-13 23:29N 35°54' W 005°30'0 0.0
2018-Aug-13 22:59N 35°54' W 005°30'0 0.0
2018-Aug-13 22:29N 35°54' W 005°30'0 0.0
2018-Aug-13 21:53N 35°54' W 005°30'0 0.0
2018-Aug-13 21:29N 35°54' W 005°30'0 0.0
2018-Aug-13 20:59N 35°54' W 005°30'0 0.0
2018-Aug-13 20:11N 35°54' W 005°30'3 1.1
2018-Aug-13 17:27N 35°56' W 005°31'715.6
2018-Aug-13 17:00N 36°00' W 005°24'1019.2
2018-Aug-13 16:30N 36°02' W 005°13'21820.5
2018-Aug-13 05:54N 37°18' W 000°58'922.7
2018-Aug-13 05:30N 37°24' W 000°49'1122.7
2018-Aug-13 05:00N 37°31' W 000°39'1122.3
2018-Aug-13 04:30N 37°39' W 000°29'1222.2
2018-Aug-13 03:58N 37°49' W 000°21'1122.2
2018-Aug-13 03:30N 37°58' W 000°14'21222.6
2018-Aug-12 18:08N 41°03' E 002°00'322.6
2018-Aug-12 17:59N 41°06' E 002°03'1122.4
2018-Aug-12 17:31N 41°15' E 002°10'611.4
2018-Aug-12 17:01N 41°21' E 002°10'1 2.1
2018-Aug-12 16:29N 41°22' E 002°10'0 0.0
2018-Aug-12 15:59N 41°22' E 002°10'0 0.0
2018-Aug-12 15:27N 41°22' E 002°10'0 0.0
2018-Aug-12 15:00N 41°22' E 002°10'0 0.0
2018-Aug-12 14:29N 41°22' E 002°10'0 0.0
2018-Aug-12 14:00N 41°22' E 002°10'0 0.0
2018-Aug-12 13:30N 41°22' E 002°10'0 0.0
2018-Aug-12 13:00N 41°22' E 002°10'0 0.0
2018-Aug-12 12:30N 41°22' E 002°10'0 0.0
2018-Aug-12 12:00N 41°22' E 002°10'0 0.0
2018-Aug-12 11:30N 41°22' E 002°10'0 0.0
2018-Aug-12 11:00N 41°22' E 002°11'2 4.5
2018-Aug-12 10:30N 41°20' E 002°10'5 9.3
2018-Aug-12 10:00N 41°17' E 002°16'1121.3
2018-Aug-12 09:30N 41°23' E 002°28'11921.6
2018-Aug-12 03:59N 42°18' E 004°49'3221.7
2018-Aug-12 02:31N 42°33' E 005°27'121.5
2018-Aug-12 02:29N 42°33' E 005°28'3021.7
2018-Aug-12 01:07N 42°47' E 006°04'1122.1
2018-Aug-12 00:38N 42°52' E 006°17'322.3
2018-Aug-12 00:30N 42°53' E 006°20'1122.4
2018-Aug-12 00:00N 42°59' E 006°34'1122.5
2018-Aug-11 23:30N 43°05' E 006°46'1122.6
2018-Aug-11 23:00N 43°12' E 006°58'1122.5
2018-Aug-11 22:30N 43°19' E 007°11'1122.4
2018-Aug-11 22:00N 43°26' E 007°23'1122.4
2018-Aug-11 21:30N 43°33' E 007°35'1122.3
2018-Aug-11 21:00N 43°39' E 007°47'1422.5
2018-Aug-11 20:24N 43°47' E 008°03'922.6
2018-Aug-11 20:00N 43°53' E 008°12'1122.4
2018-Aug-11 19:30N 43°60' E 008°24'1122.0
2018-Aug-11 19:00N 44°07' E 008°36'1122.0
2018-Aug-11 18:30N 44°13' E 008°48'1020.2
2018-Aug-11 18:00N 44°21' E 008°57'3 7.0
2018-Aug-11 17:31N 44°24' E 008°55'0 0.0
2018-Aug-11 17:00N 44°24' E 008°55'0 0.0
2018-Aug-11 16:31N 44°24' E 008°55'0 0.0
2018-Aug-11 16:01N 44°24' E 008°55'0 0.0
2018-Aug-11 15:31N 44°24' E 008°55'0 0.0
2018-Aug-11 15:01N 44°24' E 008°55'0 0.0
2018-Aug-11 14:31N 44°24' E 008°55'0 0.0
2018-Aug-11 14:01N 44°24' E 008°55'0 0.0
2018-Aug-11 13:31N 44°24' E 008°55'0 0.0
2018-Aug-11 13:01N 44°24' E 008°55'0 0.0
2018-Aug-11 12:31N 44°24' E 008°55'0 0.0
2018-Aug-11 12:01N 44°24' E 008°55'0 0.0
2018-Aug-11 11:31N 44°24' E 008°55'0 0.0
2018-Aug-11 11:00N 44°24' E 008°55'0 0.0
2018-Aug-11 10:30N 44°24' E 008°55'0 0.0
2018-Aug-11 10:01N 44°24' E 008°55'0 0.0
2018-Aug-11 09:31N 44°24' E 008°55'0 0.0
2018-Aug-11 09:01N 44°24' E 008°55'0 0.0
2018-Aug-11 08:30N 44°24' E 008°55'0 0.0
2018-Aug-11 08:00N 44°24' E 008°55'0 0.0
2018-Aug-11 07:30N 44°24' E 008°55'0 0.0
2018-Aug-11 07:01N 44°24' E 008°55'0 0.0
2018-Aug-11 06:31N 44°24' E 008°55'0 0.0
2018-Aug-11 06:01N 44°24' E 008°55'0 0.1
2018-Aug-11 05:30N 44°24' E 008°55'2 5.0
2018-Aug-11 05:00N 44°23' E 008°57'713.5
2018-Aug-11 04:30N 44°16' E 008°55'1020.4
2018-Aug-11 04:00N 44°10' E 008°43'1020.7
2018-Aug-11 03:30N 44°04' E 008°32'1020.5
2018-Aug-11 03:00N 43°57' E 008°21'1120.1
2018-Aug-11 02:29N 43°51' E 008°09'2820.2
2018-Aug-11 01:06N 43°34' E 007°38'220.1
2018-Aug-11 00:59N 43°32' E 007°36'1020.0
2018-Aug-11 00:30N 43°27' E 007°25'918.0
2018-Aug-11 00:00N 43°22' E 007°15'918.6
2018-Aug-10 23:30N 43°16' E 007°05'1019.7
2018-Aug-10 23:00N 43°10' E 006°54'20620.4
2018-Aug-10 12:54N 41°31' E 002°50'1219.9
2018-Aug-10 12:17N 41°26' E 002°35'519.3
2018-Aug-10 12:00N 41°23' E 002°29'1019.1
2018-Aug-10 11:30N 41°18' E 002°18'612.1
2018-Aug-10 11:00N 41°19' E 002°10'3 5.2
2018-Aug-10 10:30N 41°22' E 002°11'0 0.1
2018-Aug-10 09:58N 41°22' E 002°10'0 0.0
2018-Aug-10 09:28N 41°22' E 002°10'0 0.0
2018-Aug-10 08:58N 41°22' E 002°10'0 0.0
2018-Aug-10 08:28N 41°22' E 002°10'0 0.0
2018-Aug-10 07:58N 41°22' E 002°10'0 0.0
2018-Aug-10 07:30N 41°22' E 002°10'1 2.9
2018-Aug-10 07:00N 41°20' E 002°10'611.4
2018-Aug-10 06:31N 41°15' E 002°11'918.9
2018-Aug-10 06:01N 41°07' E 002°04'816.4
2018-Aug-10 05:30N 40°59' E 001°59'16115.8
2018-Aug-09 19:18N 38°36' E 000°23'2017.3
2018-Aug-09 18:08N 38°19' E 000°09'516.8
2018-Aug-09 17:51N 38°15' E 000°05'716.5
2018-Aug-09 17:27N 38°10' E 000°00'716.7
2018-Aug-09 17:01N 38°04' W 000°05'816.5
2018-Aug-09 16:31N 37°57' W 000°11'816.5
2018-Aug-09 16:00N 37°50' W 000°16'816.6
2018-Aug-09 15:31N 37°43' W 000°22'816.6
2018-Aug-09 15:01N 37°36' W 000°28'816.9
2018-Aug-09 14:31N 37°30' W 000°36'816.8
2018-Aug-09 14:01N 37°24' W 000°43'916.9
2018-Aug-09 13:30N 37°19' W 000°51'21717.1
2018-Aug-09 00:49N 36°01' W 005°04'620.2
2018-Aug-09 00:30N 36°00' W 005°12'1020.0
2018-Aug-09 00:01N 35°58' W 005°24'713.0
2018-Aug-08 23:29N 35°54' W 005°30'0 0.6
2018-Aug-08 23:00N 35°54' W 005°30'0 0.0
2018-Aug-08 22:30N 35°54' W 005°30'0 0.0
2018-Aug-08 21:54N 35°54' W 005°30'0 0.0
2018-Aug-08 21:30N 35°54' W 005°30'3 0.4
2018-Aug-08 14:43N 35°56' W 005°30'417.5
2018-Aug-08 14:31N 35°59' W 005°27'918.7
2018-Aug-08 14:00N 36°02' W 005°16'22118.6
2018-Aug-08 02:07N 37°18' W 000°57'220.5
2018-Aug-08 02:00N 37°20' W 000°55'1020.5
2018-Aug-08 01:30N 37°26' W 000°45'1020.5
2018-Aug-08 01:01N 37°33' W 000°36'1020.3
2018-Aug-08 00:31N 37°41' W 000°28'1020.2
2018-Aug-08 00:00N 37°49' W 000°20'1020.6
2018-Aug-07 23:31N 37°58' W 000°13'1020.5
2018-Aug-07 23:00N 38°06' W 000°06'1120.6
2018-Aug-07 22:28N 38°16' E 000°01'1820.5
2018-Aug-07 21:35N 38°31' E 000°14'220.5
2018-Aug-07 21:30N 38°33' E 000°15'1220.3
2018-Aug-07 20:56N 38°42' E 000°23'7120.3
2018-Aug-07 17:27N 39°44' E 001°06'8817.4
2018-Aug-07 12:26N 41°02' E 001°60'819.7
2018-Aug-07 12:00N 41°09' E 002°05'918.5
2018-Aug-07 11:30N 41°18' E 002°10'4 7.8
2018-Aug-07 11:01N 41°22' E 002°11'0 0.5
2018-Aug-07 10:28N 41°22' E 002°10'0 0.0
2018-Aug-07 09:58N 41°22' E 002°10'0 0.0
2018-Aug-07 09:28N 41°22' E 002°10'0 0.0
2018-Aug-07 08:58N 41°22' E 002°10'0 0.0
2018-Aug-07 08:28N 41°22' E 002°10'0 0.0
2018-Aug-07 07:58N 41°22' E 002°10'0 0.0
2018-Aug-07 07:28N 41°22' E 002°10'0 0.0
2018-Aug-07 06:58N 41°22' E 002°10'0 0.0
2018-Aug-07 06:28N 41°22' E 002°10'0 0.0
2018-Aug-07 05:59N 41°22' E 002°10'1 2.5
2018-Aug-07 05:30N 41°21' E 002°10'4 7.5
2018-Aug-07 05:00N 41°17' E 002°11'713.9
2018-Aug-07 04:31N 41°19' E 002°20'714.8
2018-Aug-07 04:00N 41°23' E 002°28'1515.2
2018-Aug-07 03:01N 41°32' E 002°45'115.2
2018-Aug-07 02:59N 41°32' E 002°45'715.2
2018-Aug-07 02:30N 41°36' E 002°53'815.6
2018-Aug-07 02:00N 41°41' E 003°01'916.0
2018-Aug-07 01:25N 41°46' E 003°12'615.8
2018-Aug-07 01:00N 41°50' E 003°19'1016.2
2018-Aug-07 00:25N 41°60' E 003°22'86 5.7
2018-Aug-06 09:28N 43°24' E 003°42'0 0.0
2018-Aug-06 08:58N 43°24' E 003°42'0 0.0
2018-Aug-06 08:28N 43°24' E 003°42'0 0.0
2018-Aug-06 07:58N 43°24' E 003°42'  

Dump ship's entire track history